createdAt,value
2023-03-05T00:00:16.829Z,10.38
2023-03-05T00:02:45.169Z,9.02
2023-03-05T00:05:13.650Z,12.23
2023-03-05T00:07:41.850Z,12.02
2023-03-05T00:10:11.426Z,9.65
2023-03-05T00:12:39.648Z,13.07
2023-03-05T00:15:11.004Z,11.23
2023-03-05T00:17:39.215Z,11.43
2023-03-05T00:20:09.524Z,11.82
2023-03-05T00:22:37.871Z,10.27
2023-03-05T00:25:08.074Z,11.32
2023-03-05T00:27:36.458Z,39.95
2023-03-05T00:30:05.673Z,19.75
2023-03-05T00:32:36.240Z,9.75
2023-03-05T00:35:05.155Z,10.38
2023-03-05T00:37:33.898Z,11.93
2023-03-05T00:40:02.372Z,9.30
2023-03-05T00:42:30.540Z,12.23
2023-03-05T00:44:58.819Z,8.88
2023-03-05T00:47:28.307Z,10.25
2023-03-05T00:49:57.853Z,14.27
2023-03-05T00:52:26.364Z,13.77
2023-03-05T00:54:54.800Z,10.25
2023-03-05T00:57:23.183Z,13.80
2023-03-05T00:59:51.316Z,10.60
2023-03-05T01:02:19.507Z,12.02
2023-03-05T01:04:47.805Z,10.30
2023-03-05T01:07:18.093Z,13.60
2023-03-05T01:09:46.301Z,12.70
2023-03-05T01:12:14.557Z,13.50
2023-03-05T01:14:43.016Z,14.95
2023-03-05T01:17:11.291Z,11.50
2023-03-05T01:19:39.692Z,9.25
2023-03-05T01:22:09.998Z,12.95
2023-03-05T01:24:39.572Z,15.20
2023-03-05T01:27:07.943Z,14.07
2023-03-05T01:29:37.992Z,12.65
2023-03-05T01:32:06.848Z,12.48
2023-03-05T01:34:36.913Z,14.70
2023-03-05T01:37:05.557Z,14.20
2023-03-05T01:39:33.675Z,13.05
2023-03-05T01:42:03.466Z,14.18
2023-03-05T01:44:32.729Z,11.52
2023-03-05T01:47:01.423Z,15.65
2023-03-05T01:49:34.191Z,13.65
2023-03-05T01:52:07.802Z,9.73
2023-03-05T01:54:41.044Z,10.02
2023-03-05T01:59:45.676Z,12.00
2023-03-05T02:02:15.062Z,10.27
2023-03-05T02:04:49.293Z,10.05
2023-03-05T02:07:19.076Z,13.02
2023-03-05T02:09:47.334Z,7.80
2023-03-05T02:12:17.311Z,15.38
2023-03-05T02:14:49.392Z,12.52
2023-03-05T02:17:18.054Z,14.85
2023-03-05T02:19:52.876Z,16.52
2023-03-05T02:22:25.531Z,11.60
2023-03-05T02:27:34.706Z,16.92
2023-03-05T02:30:03.939Z,12.07
2023-03-05T02:32:32.130Z,11.07
2023-03-05T02:35:00.497Z,13.15
2023-03-05T02:37:30.860Z,15.63
2023-03-05T02:39:59.020Z,12.80
2023-03-05T02:42:27.495Z,12.65
2023-03-05T02:44:55.809Z,17.27
2023-03-05T02:47:24.065Z,15.15
2023-03-05T02:49:52.297Z,14.52
2023-03-05T02:52:20.547Z,15.25
2023-03-05T02:54:50.149Z,13.25
2023-03-05T02:57:19.064Z,16.23
2023-03-05T02:59:48.181Z,19.17
2023-03-05T03:02:17.255Z,15.45
2023-03-05T03:04:46.575Z,16.70
2023-03-05T03:07:15.907Z,16.75
2023-03-05T03:09:44.158Z,13.63
2023-03-05T03:12:13.820Z,14.48
2023-03-05T03:14:43.703Z,12.70
2023-03-05T03:17:14.638Z,18.90
2023-03-05T03:19:43.315Z,12.25
2023-03-05T03:22:14.168Z,15.05
2023-03-05T03:24:44.916Z,16.17
2023-03-05T03:27:14.402Z,12.50
2023-03-05T03:29:42.550Z,17.77
2023-03-05T03:32:10.698Z,15.18
2023-03-05T03:34:38.866Z,13.95
2023-03-05T03:37:08.405Z,18.27
2023-03-05T03:39:36.557Z,19.08
2023-03-05T03:42:05.444Z,22.63
2023-03-05T03:44:34.932Z,21.50
2023-03-05T03:47:03.165Z,18.75
2023-03-05T03:49:31.334Z,15.80
2023-03-05T03:51:59.613Z,13.02
2023-03-05T03:54:27.920Z,15.77
2023-03-05T03:56:56.303Z,16.50
2023-03-05T03:59:24.920Z,20.95
2023-03-05T04:01:54.613Z,14.15
2023-03-05T04:04:22.882Z,19.60
2023-03-05T04:06:51.001Z,16.88
2023-03-05T04:09:19.194Z,17.50
2023-03-05T04:11:47.375Z,12.88
2023-03-05T04:14:15.555Z,21.88
2023-03-05T04:16:43.829Z,19.83
2023-03-05T04:19:13.400Z,19.27
2023-03-05T04:21:41.651Z,15.82
2023-03-05T04:24:10.176Z,18.25
2023-03-05T04:26:38.455Z,16.40
2023-03-05T04:29:06.624Z,23.00
2023-03-05T04:31:34.975Z,17.92
2023-03-05T04:34:03.189Z,24.50
2023-03-05T04:36:32.713Z,18.42
2023-03-05T04:39:01.091Z,20.23
2023-03-05T04:41:29.222Z,27.27
2023-03-05T04:43:57.414Z,17.92
2023-03-05T04:46:25.664Z,17.60
2023-03-05T04:48:54.287Z,19.83
2023-03-05T04:51:22.422Z,18.67
2023-03-05T04:53:51.943Z,21.80
2023-03-05T04:56:20.167Z,20.73
2023-03-05T04:58:48.460Z,18.65
2023-03-05T05:01:17.207Z,17.88
2023-03-05T05:03:45.335Z,23.95
2023-03-05T05:06:13.542Z,21.15
2023-03-05T05:08:41.792Z,21.90
2023-03-05T05:11:15.363Z,17.98
2023-03-05T05:13:43.599Z,19.23
2023-03-05T05:16:11.848Z,20.48
2023-03-05T05:18:40.201Z,15.68
2023-03-05T05:21:10.292Z,18.52
2023-03-05T05:23:38.785Z,23.27
2023-03-05T05:26:14.105Z,23.98
2023-03-05T05:28:43.842Z,27.20
2023-03-05T05:31:14.863Z,17.80
2023-03-05T05:33:43.731Z,18.02
2023-03-05T05:36:15.142Z,16.08
2023-03-05T05:38:44.582Z,17.33
2023-03-05T05:41:17.221Z,19.98
2023-03-05T05:46:17.023Z,20.50
2023-03-05T05:48:45.967Z,23.83
2023-03-05T05:51:16.448Z,25.52
2023-03-05T05:53:45.292Z,16.63
2023-03-05T05:56:16.750Z,21.67
2023-03-05T05:58:47.937Z,20.02
2023-03-05T06:01:19.668Z,16.33
2023-03-05T06:03:48.597Z,20.13
2023-03-05T06:06:19.047Z,19.90
2023-03-05T06:08:47.510Z,12.50
2023-03-05T06:11:19.325Z,15.52
2023-03-05T06:13:48.495Z,18.85
2023-03-05T06:16:21.230Z,25.35
2023-03-05T06:21:20.956Z,19.77
2023-03-05T06:23:50.441Z,23.95
2023-03-05T06:26:22.130Z,20.00
2023-03-05T06:28:50.593Z,19.98
2023-03-05T06:31:21.824Z,21.38
2023-03-05T06:33:51.000Z,14.57
2023-03-05T06:36:22.525Z,17.85
2023-03-05T06:38:53.114Z,21.17
2023-03-05T06:41:26.166Z,21.85
2023-03-05T06:43:54.979Z,20.23
2023-03-05T06:46:26.827Z,21.88
2023-03-05T06:48:57.840Z,27.53
2023-03-05T06:51:28.940Z,18.48
2023-03-05T06:54:01.270Z,24.75
2023-03-05T06:56:31.163Z,15.00
2023-03-05T06:58:59.802Z,16.52
2023-03-05T07:01:28.045Z,18.85
2023-03-05T07:03:58.846Z,18.05
2023-03-05T07:06:28.482Z,18.95
2023-03-05T07:08:57.040Z,19.83
2023-03-05T07:11:26.294Z,16.77
2023-03-05T07:13:55.950Z,20.58
2023-03-05T07:16:27.761Z,15.75
2023-03-05T07:18:58.638Z,18.33
2023-03-05T07:21:29.669Z,21.33
2023-03-05T07:24:00.288Z,14.13
2023-03-05T07:26:30.766Z,18.55
2023-03-05T07:29:01.146Z,15.82
2023-03-05T07:31:31.583Z,16.60
2023-03-05T07:34:01.783Z,22.92
2023-03-05T07:36:30.602Z,22.70
2023-03-05T07:38:58.797Z,18.98
2023-03-05T07:41:28.861Z,17.70
2023-03-05T07:43:57.292Z,20.60
2023-03-05T07:46:30.224Z,24.17
2023-03-05T07:48:59.257Z,18.45
2023-03-05T07:51:28.678Z,16.50
2023-03-05T07:53:58.875Z,15.75
2023-03-05T07:56:31.663Z,20.55
2023-03-05T07:59:00.523Z,18.48
2023-03-05T08:01:30.504Z,18.30
2023-03-05T08:03:58.890Z,17.38
2023-03-05T08:06:27.132Z,17.10
2023-03-05T08:08:55.312Z,13.25
2023-03-05T08:11:23.542Z,15.50
2023-03-05T08:13:51.888Z,11.90
2023-03-05T08:16:25.770Z,18.95
2023-03-05T08:18:58.289Z,14.07
2023-03-05T08:21:29.282Z,13.38
2023-03-05T08:23:58.324Z,11.95
2023-03-05T08:26:30.278Z,14.82
2023-03-05T08:28:59.333Z,10.70
2023-03-05T08:31:30.131Z,15.27
2023-03-05T08:34:01.826Z,12.48
2023-03-05T08:36:30.674Z,13.75
2023-03-05T08:38:59.575Z,14.43
2023-03-05T08:41:27.923Z,15.15
2023-03-05T08:43:56.338Z,14.77
2023-03-05T08:46:24.876Z,14.52
2023-03-05T08:48:53.152Z,16.65
2023-03-05T08:51:26.054Z,15.57
2023-03-05T08:53:55.572Z,16.90
2023-03-05T08:56:23.860Z,17.45
2023-03-05T08:58:52.957Z,15.73
2023-03-05T09:01:22.476Z,15.40
2023-03-05T09:03:50.908Z,11.82
2023-03-05T09:06:19.192Z,20.35
2023-03-05T09:08:48.697Z,12.30
2023-03-05T09:11:18.160Z,17.52
2023-03-05T09:13:46.785Z,16.38
2023-03-05T09:16:18.423Z,20.13
2023-03-05T09:18:47.148Z,16.43
2023-03-05T09:21:21.868Z,20.70
2023-03-05T09:23:51.509Z,16.35
2023-03-05T09:26:20.588Z,21.02
2023-03-05T09:28:51.979Z,19.58
2023-03-05T09:31:20.738Z,18.73
2023-03-05T09:33:50.118Z,18.95
2023-03-05T09:36:21.753Z,17.70
2023-03-05T09:38:51.968Z,22.80
2023-03-05T09:41:34.567Z,16.80
2023-03-05T09:44:12.908Z,22.88
2023-03-05T09:46:53.226Z,26.98
2023-03-05T09:49:34.227Z,18.05
2023-03-05T09:52:11.705Z,23.42
2023-03-05T09:54:46.184Z,19.52
2023-03-05T09:57:20.063Z,21.98
2023-03-05T09:59:53.386Z,20.35
2023-03-05T10:02:27.601Z,26.15
2023-03-05T10:05:04.802Z,26.33
2023-03-05T10:07:35.675Z,32.83
2023-03-05T10:10:14.128Z,30.75
2023-03-05T10:12:44.489Z,32.97
2023-03-05T10:15:16.910Z,33.53
2023-03-05T10:18:00.072Z,33.70
2023-03-05T10:20:52.846Z,36.13
2023-03-05T10:23:52.423Z,30.23
2023-03-05T10:26:36.415Z,35.58
2023-03-05T10:29:20.230Z,37.45
2023-03-05T10:32:07.910Z,37.70
2023-03-05T10:35:13.878Z,32.75
2023-03-05T10:38:32.463Z,34.15
2023-03-05T10:41:05.531Z,31.00
2023-03-05T10:43:41.472Z,34.03
2023-03-05T10:46:17.515Z,35.47
2023-03-05T10:48:52.262Z,30.55
2023-03-05T10:51:24.106Z,35.22
2023-03-05T10:53:57.719Z,30.23
2023-03-05T10:56:28.717Z,33.10
2023-03-05T10:58:58.904Z,28.67
2023-03-05T11:01:31.505Z,29.15
2023-03-05T11:04:03.533Z,27.85
2023-03-05T11:06:39.849Z,31.52
2023-03-05T11:09:24.105Z,23.20
2023-03-05T11:12:15.890Z,20.73
2023-03-05T11:14:48.831Z,17.88
2023-03-05T11:17:31.462Z,18.33
2023-03-05T11:20:34.738Z,18.83
2023-03-05T11:25:58.102Z,13.43
2023-03-05T11:28:33.593Z,13.23
2023-03-05T11:31:08.413Z,13.13
2023-03-05T11:33:38.771Z,16.45
2023-03-05T11:36:27.019Z,13.50
2023-03-05T11:39:00.714Z,12.50
2023-03-05T11:41:35.688Z,13.45
2023-03-05T11:44:13.307Z,11.32
2023-03-05T11:46:47.863Z,15.32
2023-03-05T11:49:21.039Z,12.20
2023-03-05T11:51:59.112Z,10.98
2023-03-05T11:54:34.478Z,12.35
2023-03-05T11:57:04.770Z,13.13
2023-03-05T11:59:39.570Z,12.60
2023-03-05T12:02:19.952Z,13.82
2023-03-05T12:04:49.778Z,11.60
2023-03-05T12:07:23.274Z,11.05
2023-03-05T12:09:54.588Z,12.95
2023-03-05T12:12:42.080Z,9.10
2023-03-05T12:16:13.535Z,10.75
2023-03-05T12:18:58.230Z,13.73
2023-03-05T12:21:36.732Z,10.82
2023-03-05T12:24:35.442Z,11.43
2023-03-05T12:27:16.016Z,11.60
2023-03-05T12:29:50.436Z,8.20
2023-03-05T12:33:02.113Z,11.20
2023-03-05T12:35:39.625Z,11.13
2023-03-05T12:38:39.677Z,11.23
2023-03-05T12:41:37.437Z,12.25
2023-03-05T12:44:24.066Z,12.63
2023-03-05T12:47:19.274Z,11.00
2023-03-05T12:49:50.812Z,10.20
2023-03-05T12:52:27.312Z,10.32
2023-03-05T12:55:20.142Z,9.68
2023-03-05T12:57:59.416Z,13.13
2023-03-05T13:00:44.259Z,12.73
2023-03-05T13:03:18.428Z,11.20
2023-03-05T13:05:52.057Z,13.60
2023-03-05T13:08:24.654Z,12.20
2023-03-05T13:10:54.936Z,12.38
2023-03-05T13:13:25.460Z,8.80
2023-03-05T13:15:55.267Z,13.35
2023-03-05T13:18:26.904Z,13.70
2023-03-05T13:21:04.481Z,16.67
2023-03-05T13:23:34.186Z,12.48
2023-03-05T13:26:15.469Z,12.27
2023-03-05T13:28:44.996Z,12.35
2023-03-05T13:31:18.429Z,12.85
2023-03-05T13:33:56.696Z,12.55
2023-03-05T13:36:27.922Z,13.07
2023-03-05T13:38:56.529Z,19.77
2023-03-05T13:41:27.128Z,13.00
2023-03-05T13:43:58.085Z,16.48
2023-03-05T13:46:33.940Z,13.98
2023-03-05T13:49:22.966Z,14.77
2023-03-05T13:51:53.638Z,16.10
2023-03-05T13:54:23.884Z,13.02
2023-03-05T13:56:58.753Z,13.38
2023-03-05T13:59:29.588Z,12.02
2023-03-05T14:02:00.771Z,12.90
2023-03-05T14:04:31.331Z,13.32
2023-03-05T14:07:03.394Z,11.52
2023-03-05T14:09:33.382Z,14.55
2023-03-05T14:12:04.832Z,10.90
2023-03-05T14:14:38.116Z,12.15
2023-03-05T14:17:41.806Z,15.18
2023-03-05T14:20:23.681Z,13.32
2023-03-05T14:22:54.403Z,14.68
2023-03-05T14:25:34.843Z,13.82
2023-03-05T14:28:04.527Z,11.93
2023-03-05T14:30:36.017Z,15.48
2023-03-05T14:33:06.105Z,14.35
2023-03-05T14:35:34.437Z,11.63
2023-03-05T14:38:02.773Z,15.75
2023-03-05T14:40:33.721Z,12.57
2023-03-05T14:43:03.956Z,15.00
2023-03-05T14:45:34.840Z,17.80
2023-03-05T14:48:07.073Z,12.10
2023-03-05T14:50:38.811Z,13.10
2023-03-05T14:53:14.198Z,11.27
2023-03-05T14:55:43.705Z,11.57
2023-03-05T14:58:15.013Z,13.05
2023-03-05T15:00:44.844Z,13.55
2023-03-05T15:03:16.147Z,13.10
2023-03-05T15:05:46.001Z,13.98
2023-03-05T15:08:18.145Z,13.63
2023-03-05T15:10:46.397Z,14.65
2023-03-05T15:13:16.099Z,14.40
2023-03-05T15:15:45.992Z,12.98
2023-03-05T15:18:18.225Z,16.42
2023-03-05T15:20:48.696Z,14.00
2023-03-05T15:23:17.937Z,13.30
2023-03-05T15:25:46.076Z,13.18
2023-03-05T15:28:14.350Z,12.23
2023-03-05T15:30:46.277Z,14.23
2023-03-05T15:33:18.163Z,15.10
2023-03-05T15:35:46.493Z,14.77
2023-03-05T15:38:15.265Z,14.48
2023-03-05T15:40:44.274Z,15.02
2023-03-05T15:43:12.584Z,12.60
2023-03-05T15:45:40.942Z,13.60
2023-03-05T15:48:09.391Z,14.85
2023-03-05T15:50:43.048Z,11.95
2023-03-05T15:53:15.571Z,11.02
2023-03-05T15:55:46.203Z,12.18
2023-03-05T15:58:17.492Z,12.65
2023-03-05T16:00:47.343Z,11.30
2023-03-05T16:03:15.670Z,15.80
2023-03-05T16:05:45.475Z,10.65
2023-03-05T16:08:13.760Z,10.25
2023-03-05T16:10:42.309Z,11.23
2023-03-05T16:13:15.459Z,10.25
2023-03-05T16:15:44.215Z,10.68
2023-03-05T16:18:16.637Z,9.98
2023-03-05T16:20:47.575Z,8.43
2023-03-05T16:23:15.990Z,7.82
2023-03-05T16:25:44.288Z,7.63
2023-03-05T16:28:12.551Z,7.40
2023-03-05T16:30:40.964Z,8.32
2023-03-05T16:33:09.796Z,10.25
2023-03-05T16:35:37.892Z,11.20
2023-03-05T16:38:08.373Z,8.95
2023-03-05T16:41:06.093Z,8.68
2023-03-05T16:43:27.216Z,9.30
2023-03-05T16:45:55.422Z,8.77
2023-03-05T16:48:23.801Z,6.20
2023-03-05T16:50:52.045Z,7.80
2023-03-05T16:53:21.539Z,7.10
2023-03-05T16:55:49.842Z,8.73
2023-03-05T16:58:18.119Z,8.68
2023-03-05T17:00:46.655Z,9.18
2023-03-05T17:03:15.394Z,8.15
2023-03-05T17:05:43.925Z,10.57
2023-03-05T17:08:12.126Z,9.15
2023-03-05T17:10:44.610Z,9.52
2023-03-05T17:13:12.933Z,10.52
2023-03-05T17:18:09.985Z,11.75
2023-03-05T17:20:38.218Z,10.35
2023-03-05T17:23:06.444Z,9.27
2023-03-05T17:25:34.961Z,11.88
2023-03-05T17:28:04.666Z,8.73
2023-03-05T17:30:33.359Z,8.75
2023-03-05T17:33:01.664Z,8.90
2023-03-05T17:35:29.905Z,8.35
2023-03-05T17:37:58.227Z,11.10
2023-03-05T17:40:26.922Z,14.77
2023-03-05T17:42:55.055Z,9.32
2023-03-05T17:45:24.674Z,9.38
2023-03-05T17:47:53.845Z,11.30
2023-03-05T17:50:22.725Z,12.68
2023-03-05T17:52:50.969Z,12.18
2023-03-05T17:55:20.120Z,11.52
2023-03-05T17:57:48.312Z,9.93
2023-03-05T18:00:22.531Z,14.70
2023-03-05T18:02:53.116Z,12.20
2023-03-05T18:05:23.533Z,13.73
2023-03-05T18:07:52.809Z,15.27
2023-03-05T18:10:23.209Z,17.10
2023-03-05T18:12:52.228Z,19.80
2023-03-05T18:15:23.247Z,18.33
2023-03-05T18:17:53.779Z,16.88
2023-03-05T18:20:30.553Z,14.38
2023-03-05T18:23:00.916Z,18.50
2023-03-05T18:25:31.343Z,19.73
2023-03-05T18:28:00.821Z,19.77
2023-03-05T18:30:30.250Z,19.40
2023-03-05T18:33:00.276Z,23.58
2023-03-05T18:35:29.729Z,23.80
2023-03-05T18:37:58.361Z,22.88
2023-03-05T18:40:29.616Z,24.40
2023-03-05T18:43:01.536Z,23.80
2023-03-05T18:45:31.167Z,26.08
2023-03-05T18:48:00.783Z,27.60
2023-03-05T18:50:30.321Z,26.85
2023-03-05T18:52:58.871Z,27.27
2023-03-05T18:55:33.389Z,26.25
2023-03-05T18:58:02.935Z,25.45
2023-03-05T19:00:33.292Z,26.05
2023-03-05T19:03:03.459Z,26.75
2023-03-05T19:05:32.151Z,27.00
2023-03-05T19:08:01.306Z,24.67
2023-03-05T19:10:29.608Z,23.33
2023-03-05T19:13:07.914Z,23.17
2023-03-05T19:15:36.144Z,25.30
2023-03-05T19:18:05.711Z,24.40
2023-03-05T19:20:33.962Z,22.27
2023-03-05T19:23:02.113Z,20.98
2023-03-05T19:25:30.487Z,21.58
2023-03-05T19:27:58.995Z,22.27
2023-03-05T19:30:27.890Z,22.33
2023-03-05T19:32:59.141Z,23.60
2023-03-05T19:35:33.275Z,28.60
2023-03-05T19:38:01.635Z,23.67
2023-03-05T19:40:30.310Z,24.58
2023-03-05T19:43:01.854Z,21.85
2023-03-05T19:45:34.153Z,22.90
2023-03-05T19:48:02.825Z,23.58
2023-03-05T19:50:34.470Z,26.08
2023-03-05T19:53:03.013Z,24.63
2023-03-05T19:55:31.711Z,25.00
2023-03-05T19:58:02.028Z,23.63
2023-03-05T20:00:30.513Z,23.95
2023-03-05T20:02:59.292Z,25.52
2023-03-05T20:05:27.650Z,24.23
2023-03-05T20:07:57.638Z,24.67
2023-03-05T20:10:26.236Z,26.17
2023-03-05T20:12:54.636Z,23.65
2023-03-05T20:15:23.484Z,26.58
2023-03-05T20:17:54.032Z,26.27
2023-03-05T20:20:22.307Z,23.98
2023-03-05T20:22:50.587Z,29.60
2023-03-05T20:25:24.709Z,28.63
2023-03-05T20:27:54.796Z,25.95
2023-03-05T20:30:23.361Z,30.15
2023-03-05T20:32:51.831Z,30.60
2023-03-05T20:35:20.419Z,29.58
2023-03-05T20:38:00.145Z,30.55
2023-03-05T20:40:29.992Z,31.77
2023-03-05T20:42:58.273Z,30.02
2023-03-05T20:45:26.595Z,31.42
2023-03-05T20:47:55.215Z,28.65
2023-03-05T20:50:23.599Z,30.02
2023-03-05T20:52:51.814Z,28.73
2023-03-05T20:55:20.160Z,27.67
2023-03-05T20:57:52.695Z,27.98
2023-03-05T21:00:21.409Z,30.42
2023-03-05T21:02:51.557Z,27.95
2023-03-05T21:05:21.954Z,30.88
2023-03-05T21:07:50.639Z,28.75
2023-03-05T21:10:20.242Z,28.55
2023-03-05T21:12:51.633Z,29.77
2023-03-05T21:15:22.862Z,33.22
2023-03-05T21:17:51.183Z,28.80
2023-03-05T21:20:22.467Z,25.13
2023-03-05T21:22:50.680Z,29.00
2023-03-05T21:25:23.154Z,29.35
2023-03-05T21:27:57.336Z,27.02
2023-03-05T21:30:31.471Z,27.55
2023-03-05T21:33:01.179Z,29.15
2023-03-05T21:35:30.133Z,29.58
2023-03-05T21:37:58.364Z,30.40
2023-03-05T21:40:26.788Z,32.13
2023-03-05T21:42:56.929Z,33.67
2023-03-05T21:45:28.536Z,36.78
2023-03-05T21:47:58.649Z,35.75
2023-03-05T21:50:27.508Z,34.55
2023-03-05T21:52:56.062Z,30.13
2023-03-05T21:55:32.261Z,26.77
2023-03-05T21:58:02.329Z,29.20
2023-03-05T22:00:30.641Z,25.70
2023-03-05T22:02:58.777Z,25.15
2023-03-05T22:05:26.975Z,26.10
2023-03-05T22:07:56.578Z,27.27
2023-03-05T22:10:25.389Z,27.73
2023-03-05T22:13:03.243Z,29.23
2023-03-05T22:15:33.172Z,29.85
2023-03-05T22:18:01.792Z,31.27
2023-03-05T22:20:30.160Z,32.10
2023-03-05T22:22:58.490Z,32.95
2023-03-05T22:25:26.877Z,34.30
2023-03-05T22:27:55.543Z,31.05
2023-03-05T22:30:24.228Z,26.23
2023-03-05T22:32:55.000Z,28.02
2023-03-05T22:35:23.544Z,28.27
2023-03-05T22:37:51.780Z,24.20
2023-03-05T22:40:21.390Z,24.88
2023-03-05T22:42:50.185Z,25.08
2023-03-05T22:45:19.882Z,22.50
2023-03-05T22:47:50.458Z,25.98
2023-03-05T22:50:21.093Z,24.98
2023-03-05T22:52:49.340Z,24.05
2023-03-05T22:55:18.156Z,27.35
2023-03-05T22:57:46.513Z,30.45
2023-03-05T23:00:18.682Z,24.02
2023-03-05T23:02:47.589Z,25.00
2023-03-05T23:05:16.111Z,26.33
2023-03-05T23:07:47.122Z,29.58
2023-03-05T23:10:19.476Z,26.90
2023-03-05T23:12:51.968Z,27.13
2023-03-05T23:15:24.927Z,26.60
2023-03-05T23:17:53.342Z,31.90
2023-03-05T23:20:25.088Z,28.88
2023-03-05T23:22:56.179Z,31.37
2023-03-05T23:25:27.351Z,32.60
2023-03-05T23:27:57.837Z,31.77
2023-03-05T23:30:28.894Z,34.05
2023-03-05T23:33:00.406Z,33.50
2023-03-05T23:35:31.073Z,33.05
2023-03-05T23:38:02.773Z,34.33
2023-03-05T23:40:34.256Z,31.67
2023-03-05T23:43:02.961Z,35.28
2023-03-05T23:45:31.599Z,37.95
2023-03-05T23:48:00.347Z,37.25
2023-03-05T23:50:30.887Z,34.58
2023-03-05T23:53:02.232Z,34.15
2023-03-05T23:55:34.620Z,32.50
2023-03-05T23:58:03.319Z,38.38
